createdAt,value
2022-11-30T00:00:37.561Z,10.20
2022-11-30T00:06:05.653Z,9.97
2022-11-30T00:11:29.968Z,10.90
2022-11-30T00:16:53.195Z,11.27
2022-11-30T00:22:14.746Z,10.63
2022-11-30T00:27:36.825Z,12.07
2022-11-30T00:33:00.685Z,10.60
2022-11-30T00:38:22.931Z,11.60
2022-11-30T00:43:45.128Z,12.33
2022-11-30T00:49:11.435Z,14.23
2022-11-30T00:54:33.130Z,14.40
2022-11-30T00:59:54.876Z,12.63
2022-11-30T01:05:18.301Z,13.70
2022-11-30T01:10:42.193Z,15.93
2022-11-30T01:16:10.403Z,15.30
2022-11-30T01:21:33.532Z,14.40
2022-11-30T01:26:55.085Z,16.33
2022-11-30T01:32:17.537Z,16.93
2022-11-30T01:37:42.214Z,15.37
2022-11-30T01:43:04.941Z,20.57
2022-11-30T01:48:26.489Z,16.37
2022-11-30T01:53:50.283Z,16.03
2022-11-30T01:59:13.021Z,14.50
2022-11-30T02:04:37.453Z,16.20
2022-11-30T02:10:01.543Z,14.67
2022-11-30T02:15:32.176Z,16.97
2022-11-30T02:21:06.132Z,14.40
2022-11-30T02:26:47.862Z,14.33
2022-11-30T02:32:16.252Z,15.97
2022-11-30T02:37:39.834Z,16.10
2022-11-30T02:43:04.804Z,17.10
2022-11-30T02:48:34.329Z,20.10
2022-11-30T02:53:57.433Z,17.80
2022-11-30T02:59:19.307Z,16.30
2022-11-30T03:04:43.333Z,18.00
2022-11-30T03:10:06.429Z,16.70
2022-11-30T03:15:28.889Z,17.00
2022-11-30T03:20:52.070Z,17.07
2022-11-30T03:26:14.008Z,18.03
2022-11-30T03:31:35.479Z,17.23
2022-11-30T03:36:58.604Z,15.67
2022-11-30T03:42:20.576Z,16.07
2022-11-30T03:47:42.418Z,18.17
2022-11-30T03:53:05.853Z,14.50
2022-11-30T03:58:27.889Z,15.17
2022-11-30T04:03:50.277Z,17.27
2022-11-30T04:09:13.876Z,15.40
2022-11-30T04:14:35.354Z,14.97
2022-11-30T04:19:56.794Z,16.93
2022-11-30T04:25:22.309Z,16.70
2022-11-30T04:30:44.762Z,16.83
2022-11-30T04:36:09.286Z,17.23
2022-11-30T04:41:32.109Z,16.23
2022-11-30T04:46:54.329Z,17.37
2022-11-30T04:52:15.916Z,16.63
2022-11-30T04:57:39.742Z,16.67
2022-11-30T05:03:04.390Z,18.53
2022-11-30T05:08:26.509Z,16.90
2022-11-30T05:13:49.680Z,17.07
2022-11-30T05:19:13.015Z,16.80
2022-11-30T05:24:34.836Z,17.43
2022-11-30T05:29:57.891Z,17.63
2022-11-30T05:35:19.751Z,17.37
2022-11-30T05:40:41.312Z,19.27
2022-11-30T05:46:06.840Z,17.67
2022-11-30T05:51:28.337Z,17.03
2022-11-30T05:56:54.461Z,19.30
2022-11-30T06:02:18.099Z,16.83
2022-11-30T06:07:40.427Z,21.97
2022-11-30T06:13:07.893Z,21.20
2022-11-30T06:18:31.185Z,25.17
2022-11-30T06:23:53.501Z,19.07
2022-11-30T06:29:15.482Z,22.07
2022-11-30T06:34:38.708Z,20.57
2022-11-30T06:40:07.977Z,19.13
2022-11-30T06:45:31.862Z,20.17
2022-11-30T06:50:54.740Z,21.20
2022-11-30T06:56:16.323Z,23.73
2022-11-30T07:01:38.221Z,21.70
2022-11-30T07:07:01.592Z,21.93
2022-11-30T07:12:23.033Z,23.47
2022-11-30T07:17:44.571Z,22.57
2022-11-30T07:23:21.777Z,28.73
2022-11-30T07:28:46.289Z,25.77
2022-11-30T07:34:10.057Z,28.13
2022-11-30T07:39:33.493Z,30.63
2022-11-30T07:44:58.808Z,31.37
2022-11-30T07:50:20.788Z,32.70
2022-11-30T07:55:44.549Z,31.40
2022-11-30T08:01:08.546Z,30.13
2022-11-30T08:06:32.725Z,33.73
2022-11-30T08:11:56.244Z,36.90
2022-11-30T08:17:17.979Z,35.57
2022-11-30T08:22:42.900Z,37.37
2022-11-30T08:28:06.705Z,35.30
2022-11-30T08:33:30.876Z,33.53
2022-11-30T08:38:52.747Z,34.50
2022-11-30T08:44:15.843Z,38.67
2022-11-30T08:49:37.653Z,41.77
2022-11-30T08:54:59.352Z,34.50
2022-11-30T09:00:22.943Z,35.43
2022-11-30T09:05:44.917Z,36.73
2022-11-30T09:11:11.193Z,39.53
2022-11-30T09:16:34.165Z,32.93
2022-11-30T09:21:55.967Z,31.70
2022-11-30T09:27:17.499Z,37.27
2022-11-30T09:32:40.556Z,36.83
2022-11-30T09:38:05.140Z,36.10
2022-11-30T09:43:36.707Z,37.70
2022-11-30T09:49:04.389Z,37.10
2022-11-30T09:54:35.638Z,39.60
2022-11-30T09:59:59.578Z,35.53
2022-11-30T10:05:28.276Z,31.97
2022-11-30T10:11:00.445Z,36.57
2022-11-30T10:16:33.311Z,38.50
2022-11-30T10:22:07.375Z,38.37
2022-11-30T10:27:42.164Z,34.50
2022-11-30T10:33:12.270Z,35.10
2022-11-30T10:38:40.672Z,35.57
2022-11-30T10:44:08.863Z,33.90
2022-11-30T10:49:33.122Z,33.63
2022-11-30T10:55:04.127Z,36.67
2022-11-30T11:00:26.900Z,32.83
2022-11-30T11:05:49.250Z,32.63
2022-11-30T11:11:36.701Z,34.17
2022-11-30T11:17:03.410Z,29.77
2022-11-30T11:22:27.711Z,35.57
2022-11-30T11:27:55.245Z,31.67
2022-11-30T11:33:22.959Z,28.23
2022-11-30T11:38:47.252Z,30.53
2022-11-30T11:44:22.488Z,27.47
2022-11-30T11:49:44.341Z,32.53
2022-11-30T11:55:11.408Z,33.27
2022-11-30T12:00:34.869Z,32.03
2022-11-30T12:06:01.744Z,30.43
2022-11-30T12:11:29.956Z,31.70
2022-11-30T12:17:14.786Z,31.47
2022-11-30T12:22:53.242Z,31.53
2022-11-30T12:28:26.381Z,35.43
2022-11-30T12:34:07.021Z,31.50
2022-11-30T12:39:38.991Z,31.13
2022-11-30T12:45:12.773Z,32.17
2022-11-30T12:51:01.631Z,32.20
2022-11-30T12:56:32.324Z,32.07
2022-11-30T13:02:11.920Z,30.97
2022-11-30T13:07:43.768Z,30.37
2022-11-30T13:13:07.572Z,30.17
2022-11-30T13:18:30.404Z,28.10
2022-11-30T13:23:58.644Z,26.63
2022-11-30T13:29:47.626Z,26.43
2022-11-30T13:35:44.574Z,29.90
2022-11-30T13:41:10.034Z,27.27
2022-11-30T13:46:31.851Z,26.07
2022-11-30T13:52:20.857Z,28.30
2022-11-30T13:58:08.871Z,26.53
2022-11-30T14:03:31.589Z,26.33
2022-11-30T14:08:53.457Z,25.73
2022-11-30T14:14:46.353Z,25.93
2022-11-30T14:20:17.948Z,24.70
2022-11-30T14:25:45.626Z,24.60
2022-11-30T14:31:12.267Z,23.90
2022-11-30T14:36:37.216Z,26.47
2022-11-30T14:42:02.174Z,24.63
2022-11-30T14:47:28.831Z,22.07
2022-11-30T14:53:01.843Z,22.80
2022-11-30T14:58:32.378Z,23.87
2022-11-30T15:03:58.497Z,24.93
2022-11-30T15:09:22.697Z,24.53
2022-11-30T15:15:03.243Z,25.33
2022-11-30T15:20:30.571Z,21.17
2022-11-30T15:25:59.084Z,21.97
2022-11-30T15:31:21.323Z,24.77
2022-11-30T15:36:44.838Z,24.50
2022-11-30T15:42:18.930Z,25.07
2022-11-30T15:47:40.604Z,24.70
2022-11-30T15:53:05.476Z,26.13
2022-11-30T15:58:30.809Z,24.00
2022-11-30T16:04:07.045Z,23.47
2022-11-30T16:09:33.391Z,24.73
2022-11-30T16:14:55.289Z,22.43
2022-11-30T16:20:18.081Z,23.93
2022-11-30T16:25:42.438Z,24.27
2022-11-30T16:31:04.108Z,24.57
2022-11-30T16:36:26.074Z,24.57
2022-11-30T16:41:49.592Z,24.47
2022-11-30T16:47:11.078Z,26.03
2022-11-30T16:52:34.382Z,26.83
2022-11-30T16:57:57.505Z,23.90
2022-11-30T17:03:23.007Z,27.73
2022-11-30T17:08:44.701Z,24.93
2022-11-30T17:14:08.129Z,26.20
2022-11-30T17:19:30.196Z,25.03
2022-11-30T17:24:52.120Z,26.90
2022-11-30T17:30:17.754Z,26.47
2022-11-30T17:35:40.107Z,30.27
2022-11-30T17:41:02.406Z,24.63
2022-11-30T17:46:25.873Z,34.53
2022-11-30T17:51:47.837Z,33.23
2022-11-30T17:57:10.425Z,31.87
2022-11-30T18:02:33.590Z,30.00
2022-11-30T18:07:55.671Z,36.03
2022-11-30T18:13:19.555Z,33.80
2022-11-30T18:18:47.797Z,36.67
2022-11-30T18:24:13.648Z,38.03
2022-11-30T18:29:35.574Z,38.67
2022-11-30T18:34:58.755Z,36.30
2022-11-30T18:40:20.780Z,37.50
2022-11-30T18:45:42.680Z,43.90
2022-11-30T18:51:12.685Z,42.10
2022-11-30T18:56:36.342Z,43.47
2022-11-30T19:01:59.502Z,45.03
2022-11-30T19:07:22.988Z,46.87
2022-11-30T19:12:46.832Z,45.87
2022-11-30T19:18:09.195Z,48.13
2022-11-30T19:23:32.303Z,54.20
2022-11-30T19:28:55.454Z,48.30
2022-11-30T19:34:16.934Z,50.23
2022-11-30T19:39:39.952Z,50.20
2022-11-30T19:45:01.823Z,48.23
2022-11-30T19:50:24.680Z,59.80
2022-11-30T19:55:48.211Z,50.63
2022-11-30T20:01:13.433Z,49.63
2022-11-30T20:06:37.199Z,48.20
2022-11-30T20:12:00.277Z,50.97
2022-11-30T20:17:21.850Z,50.60
2022-11-30T20:22:43.879Z,48.37
2022-11-30T20:28:12.278Z,45.37
2022-11-30T20:33:35.487Z,46.23
2022-11-30T20:38:57.127Z,53.00
2022-11-30T20:44:20.207Z,48.50
2022-11-30T20:49:42.046Z,47.23
2022-11-30T20:55:04.142Z,49.40
2022-11-30T21:00:27.388Z,51.80
2022-11-30T21:06:00.846Z,57.53
2022-11-30T21:11:31.552Z,54.80
2022-11-30T21:17:21.872Z,59.37
2022-11-30T21:22:44.015Z,56.83
2022-11-30T21:28:05.930Z,58.30
2022-11-30T21:33:29.238Z,57.50
2022-11-30T21:38:59.546Z,61.97
2022-11-30T21:44:24.849Z,61.60
2022-11-30T21:49:48.464Z,62.67
2022-11-30T21:55:11.178Z,71.53
2022-11-30T22:00:32.745Z,71.27
2022-11-30T22:06:03.133Z,71.10
2022-11-30T22:11:24.959Z,76.43
2022-11-30T22:16:47.023Z,77.60
2022-11-30T22:22:10.315Z,80.10
2022-11-30T22:27:33.084Z,76.87
2022-11-30T22:32:54.764Z,79.83
2022-11-30T22:38:17.749Z,85.33
2022-11-30T22:43:39.425Z,88.73
2022-11-30T22:49:01.877Z,78.17
2022-11-30T22:54:24.770Z,79.50
2022-11-30T22:59:46.933Z,94.07
2022-11-30T23:05:09.109Z,95.10
2022-11-30T23:10:32.193Z,87.83
2022-11-30T23:15:54.291Z,88.07
2022-11-30T23:21:18.684Z,85.30
2022-11-30T23:26:43.111Z,87.57
2022-11-30T23:32:05.219Z,87.07
2022-11-30T23:37:27.114Z,80.87
2022-11-30T23:42:53.548Z,71.53
2022-11-30T23:48:15.205Z,62.30
2022-11-30T23:53:36.827Z,61.00
2022-11-30T23:59:00.047Z,58.30
